Time;durP1;ratioP1;P1;durP2;ratioP2;P2;SDS_P1;SDS_P2;PMS_P1;PMS_P2;Temp;Humidity;BMP_temperature;BMP_pressure;BME280_temperature;BME280_humidity;BME280_pressure;Samples;Min_cycle;Max_cycle;Signal;HPM_P1;HPM_P2
2021/07/06 00:00:28;;;;;;;3.85;3.50;;;20.00;89.30;;;;;;5067740;28;20213;-75
2021/07/06 00:02:54;;;;;;;3.10;3.00;;;20.00;88.40;;;;;;5066497;28;20187;-75
2021/07/06 00:05:21;;;;;;;3.05;2.95;;;20.00;88.30;;;;;;5066856;28;20260;-75
2021/07/06 00:07:48;;;;;;;3.58;3.47;;;20.00;88.00;;;;;;5067707;28;20241;-75
2021/07/06 00:10:15;;;;;;;3.28;3.08;;;19.90;87.90;;;;;;5067445;28;20192;-75
2021/07/06 00:12:42;;;;;;;3.30;3.10;;;19.90;87.90;;;;;;5066101;28;20219;-75
2021/07/06 00:15:09;;;;;;;3.60;3.40;;;19.90;87.40;;;;;;5066506;28;20204;-75
2021/07/06 00:17:36;;;;;;;2.90;2.80;;;20.00;87.00;;;;;;5067076;28;20265;-75
2021/07/06 00:20:04;;;;;;;2.92;2.83;;;20.00;86.90;;;;;;5067107;28;20652;-75
2021/07/06 00:22:30;;;;;;;2.60;2.47;;;20.00;86.30;;;;;;5065645;28;20187;-75
2021/07/06 00:24:56;;;;;;;2.95;2.85;;;20.10;86.40;;;;;;5068078;28;20193;-75
2021/07/06 00:27:21;;;;;;;2.83;2.70;;;20.10;86.20;;;;;;5065661;28;20266;-74
2021/07/06 00:29:47;;;;;;;2.75;2.70;;;20.10;86.00;;;;;;5068148;28;20914;-75
2021/07/06 00:32:12;;;;;;;3.05;2.85;;;20.10;85.90;;;;;;5066608;28;20280;-75
2021/07/06 00:34:38;;;;;;;3.20;3.00;;;20.20;85.80;;;;;;5066192;28;20198;-74
2021/07/06 00:37:05;;;;;;;2.90;2.80;;;20.20;85.70;;;;;;5066982;28;20191;-74
2021/07/06 00:39:31;;;;;;;3.47;3.38;;;20.10;86.00;;;;;;5067756;28;20179;-75
2021/07/06 00:41:56;;;;;;;3.38;3.17;;;20.10;86.10;;;;;;5065974;28;20195;-75
2021/07/06 00:44:22;;;;;;;3.15;3.05;;;20.10;85.60;;;;;;5066121;28;20571;-75
2021/07/06 00:46:49;;;;;;;3.47;3.38;;;20.10;86.00;;;;;;5067822;28;20183;-75
2021/07/06 00:49:15;;;;;;;3.25;3.15;;;20.10;85.60;;;;;;5064311;28;20258;-75
2021/07/06 00:51:41;;;;;;;3.28;3.17;;;20.00;86.00;;;;;;5066116;28;20266;-75
2021/07/06 00:54:07;;;;;;;3.40;3.20;;;20.10;85.90;;;;;;5067377;28;20207;-75
2021/07/06 00:56:35;;;;;;;3.65;3.35;;;20.00;86.00;;;;;;5056668;28;20179;-75
2021/07/06 00:59:01;;;;;;;3.40;3.22;;;20.00;85.10;;;;;;5064386;28;20651;-75
2021/07/06 01:01:27;;;;;;;3.45;3.28;;;20.00;85.20;;;;;;5065697;28;20264;-75
2021/07/06 01:03:53;;;;;;;3.60;3.40;;;20.00;85.20;;;;;;5071907;28;20269;-75
2021/07/06 01:06:18;;;;;;;3.85;3.60;;;20.00;85.30;;;;;;5067511;28;20282;-75
2021/07/06 01:08:45;;;;;;;3.40;3.25;;;20.00;85.10;;;;;;5080988;28;20911;-75
2021/07/06 01:11:13;;;;;;;3.80;3.50;;;20.00;84.90;;;;;;5067298;28;20175;-74
2021/07/06 01:13:40;;;;;;;3.25;3.15;;;20.00;84.40;;;;;;5065256;28;20219;-75
2021/07/06 01:16:05;;;;;;;3.47;3.35;;;20.10;84.40;;;;;;5066735;28;20190;-75
2021/07/06 01:18:32;;;;;;;2.75;2.65;;;20.10;84.30;;;;;;5066782;28;20187;-75
2021/07/06 01:20:58;;;;;;;3.35;3.15;;;20.10;84.20;;;;;;5066730;28;20244;-76
2021/07/06 01:23:28;;;;;;;3.05;2.95;;;20.10;84.00;;;;;;5066627;28;20195;-75
2021/07/06 01:25:56;;;;;;;2.78;2.67;;;20.10;84.10;;;;;;5067034;28;20194;-76
2021/07/06 01:28:22;;;;;;;2.95;2.85;;;20.10;83.90;;;;;;5064847;28;20187;-76
2021/07/06 01:30:48;;;;;;;3.00;2.90;;;20.10;84.10;;;;;;5060451;28;20726;-75
2021/07/06 01:33:29;;;;;;;3.05;2.95;;;20.10;83.90;;;;;;5067293;28;20231;-75
2021/07/06 01:35:57;;;;;;;3.05;2.95;;;20.10;83.70;;;;;;5067113;28;20178;-75
2021/07/06 01:38:23;;;;;;;3.20;3.00;;;20.10;83.90;;;;;;5061709;28;20185;-75
2021/07/06 01:40:49;;;;;;;3.33;3.17;;;20.10;83.80;;;;;;5064559;28;20211;-75
2021/07/06 01:43:15;;;;;;;3.15;3.05;;;20.10;83.90;;;;;;5066278;28;20248;-75
2021/07/06 01:45:41;;;;;;;3.10;3.00;;;20.00;84.00;;;;;;5065626;28;20187;-75
2021/07/06 01:48:07;;;;;;;2.92;2.78;;;20.00;83.90;;;;;;5064171;28;20191;-75
2021/07/06 01:50:39;;;;;;;2.95;2.85;;;20.00;84.10;;;;;;5064221;28;20648;-75
2021/07/06 01:53:07;;;;;;;3.05;2.85;;;19.90;83.90;;;;;;5058716;28;20219;-75
2021/07/06 01:55:36;;;;;;;3.40;2.92;;;19.90;84.10;;;;;;5067682;28;20170;-75
2021/07/06 01:58:05;;;;;;;3.38;3.28;;;19.90;84.40;;;;;;5067115;28;20203;-75
2021/07/06 02:00:34;;;;;;;3.47;3.38;;;19.80;85.10;;;;;;5062546;28;20244;-75
2021/07/06 02:03:02;;;;;;;3.10;2.90;;;19.80;85.40;;;;;;5066022;28;20562;-75
2021/07/06 02:05:41;;;;;;;5.25;3.20;;;19.80;85.90;;;;;;5064731;28;20217;-75
2021/07/06 02:08:09;;;;;;;4.47;3.65;;;19.70;85.60;;;;;;5067401;28;20632;-75
2021/07/06 02:10:36;;;;;;;3.50;3.38;;;19.70;85.90;;;;;;5061936;28;20193;-74
2021/07/06 02:13:03;;;;;;;2.88;2.78;;;19.70;86.00;;;;;;5065784;28;20306;-75
2021/07/06 02:15:29;;;;;;;4.10;3.70;;;19.60;86.10;;;;;;5065444;28;20201;-75
2021/07/06 02:17:56;;;;;;;3.60;3.33;;;19.60;86.40;;;;;;5064722;28;20266;-75
2021/07/06 02:20:23;;;;;;;3.72;3.47;;;19.60;86.30;;;;;;5080138;28;20686;-76
2021/07/06 02:22:49;;;;;;;3.58;3.47;;;19.50;86.20;;;;;;5066828;28;20194;-75
2021/07/06 02:25:17;;;;;;;3.72;3.45;;;19.50;86.40;;;;;;5068207;28;20270;-75
2021/07/06 02:27:47;;;;;;;3.80;3.60;;;19.50;85.90;;;;;;5068754;28;20182;-75
2021/07/06 02:30:17;;;;;;;3.35;3.15;;;19.50;86.30;;;;;;5063841;28;20189;-75
2021/07/06 02:32:43;;;;;;;3.83;3.45;;;19.40;86.30;;;;;;5069264;28;20215;-75
2021/07/06 02:35:10;;;;;;;3.97;3.78;;;19.40;86.90;;;;;;5069773;28;20232;-75
2021/07/06 02:37:37;;;;;;;3.63;3.53;;;19.40;86.50;;;;;;5071342;28;20179;-75
2021/07/06 02:40:05;;;;;;;3.58;3.28;;;19.30;86.50;;;;;;5068585;28;20183;-75
2021/07/06 02:42:31;;;;;;;4.43;3.88;;;19.30;86.90;;;;;;5070131;28;20568;-75
2021/07/06 02:44:57;;;;;;;3.33;3.22;;;19.30;87.00;;;;;;5083611;28;20191;-75
2021/07/06 02:47:22;;;;;;;3.65;3.45;;;19.30;86.90;;;;;;5067060;28;21169;-75
2021/07/06 02:49:48;;;;;;;3.42;3.22;;;19.30;86.90;;;;;;5066528;28;20924;-76
2021/07/06 02:52:14;;;;;;;8.95;4.00;;;19.20;86.50;;;;;;5065839;28;20213;-76
2021/07/06 02:54:40;;;;;;;4.10;3.80;;;19.20;86.70;;;;;;5066899;28;20190;-76
2021/07/06 02:57:09;;;;;;;5.40;4.10;;;19.20;87.20;;;;;;5061940;28;20222;-76
2021/07/06 02:59:34;;;;;;;3.90;3.70;;;19.20;87.00;;;;;;5068750;28;20178;-76
2021/07/06 03:02:00;;;;;;;4.00;3.80;;;19.20;86.70;;;;;;5067077;28;20292;-76
2021/07/06 03:04:26;;;;;;;4.22;3.83;;;19.20;86.80;;;;;;5063323;28;20187;-76
2021/07/06 03:06:51;;;;;;;3.45;3.35;;;19.20;86.50;;;;;;5066579;28;20191;-76
2021/07/06 03:09:17;;;;;;;4.05;3.70;;;19.20;87.10;;;;;;5066097;28;20272;-75
2021/07/06 03:11:44;;;;;;;3.75;3.55;;;19.20;87.00;;;;;;5059410;28;21012;-75
2021/07/06 03:14:10;;;;;;;3.63;3.53;;;19.30;86.60;;;;;;5067225;28;20215;-75
2021/07/06 03:16:36;;;;;;;4.25;4.05;;;19.30;86.50;;;;;;5062619;28;20256;-75
2021/07/06 03:19:01;;;;;;;3.97;3.75;;;19.40;86.90;;;;;;5063258;28;20187;-75
2021/07/06 03:21:27;;;;;;;3.83;3.45;;;19.40;86.60;;;;;;5071402;28;20724;-75
2021/07/06 03:23:54;;;;;;;5.95;3.75;;;19.40;86.60;;;;;;5069303;28;20207;-75
2021/07/06 03:26:20;;;;;;;3.67;3.58;;;19.50;86.20;;;;;;5066972;28;20698;-75
2021/07/06 03:28:47;;;;;;;4.13;3.83;;;19.50;86.40;;;;;;5069649;28;20346;-75
2021/07/06 03:31:13;;;;;;;4.28;4.05;;;19.60;86.00;;;;;;5065826;28;20179;-74
2021/07/06 03:33:38;;;;;;;4.30;4.10;;;19.60;85.90;;;;;;5065339;28;20230;-75
2021/07/06 03:36:05;;;;;;;4.13;3.92;;;19.60;85.80;;;;;;5065274;28;20189;-75
2021/07/06 03:38:31;;;;;;;4.40;4.10;;;19.60;85.70;;;;;;5066459;28;20251;-76
2021/07/06 03:40:57;;;;;;;4.00;3.80;;;19.60;85.80;;;;;;5066808;28;20252;-75
2021/07/06 03:43:22;;;;;;;3.88;3.67;;;19.60;86.30;;;;;;5067109;28;20187;-75
2021/07/06 03:45:48;;;;;;;4.55;4.22;;;19.60;85.60;;;;;;5064328;28;20270;-75
2021/07/06 03:48:14;;;;;;;3.63;3.53;;;19.60;86.00;;;;;;5067557;28;20226;-75
2021/07/06 03:50:39;;;;;;;3.85;3.75;;;19.70;85.70;;;;;;5064964;28;20264;-75
2021/07/06 03:53:06;;;;;;;5.00;4.60;;;19.70;85.70;;;;;;5064650;28;20723;-75
2021/07/06 03:55:32;;;;;;;4.50;4.10;;;19.70;85.60;;;;;;5078563;28;20194;-76
2021/07/06 03:57:58;;;;;;;4.40;4.25;;;19.70;85.10;;;;;;5067547;28;20656;-75
2021/07/06 04:00:28;;;;;;;4.90;4.28;;;19.80;85.00;;;;;;5066952;28;20183;-75
2021/07/06 04:02:55;;;;;;;3.88;3.67;;;19.80;85.10;;;;;;5064931;28;20175;-75
2021/07/06 04:05:21;;;;;;;4.43;4.22;;;19.80;84.80;;;;;;5066541;28;20265;-75
2021/07/06 04:07:47;;;;;;;4.65;4.45;;;19.80;84.90;;;;;;5067418;28;20191;-75
2021/07/06 04:10:17;;;;;;;4.45;4.20;;;19.90;84.60;;;;;;5067538;28;20627;-76
2021/07/06 04:12:47;;;;;;;4.45;4.13;;;19.90;84.40;;;;;;5066208;28;20700;-75
2021/07/06 04:15:14;;;;;;;4.15;3.80;;;19.90;84.70;;;;;;5079509;28;21055;-76
2021/07/06 04:17:40;;;;;;;5.03;4.15;;;19.90;84.20;;;;;;5066333;28;20194;-75
2021/07/06 04:20:07;;;;;;;5.13;4.80;;;20.00;84.20;;;;;;5064038;28;20186;-73
2021/07/06 04:22:33;;;;;;;4.15;3.95;;;20.00;83.90;;;;;;5066250;28;20599;-73
2021/07/06 04:24:59;;;;;;;5.05;4.55;;;20.00;84.10;;;;;;5064483;28;20236;-73
2021/07/06 04:27:25;;;;;;;7.40;4.13;;;20.10;84.30;;;;;;5066328;28;20229;-73
2021/07/06 04:29:51;;;;;;;4.88;4.68;;;20.10;83.90;;;;;;5064406;28;20183;-75
2021/07/06 04:32:17;;;;;;;5.20;4.40;;;20.10;84.50;;;;;;5059924;28;20190;-74
2021/07/06 04:34:48;;;;;;;4.97;4.25;;;20.20;84.60;;;;;;5067063;28;20189;-73
2021/07/06 04:37:14;;;;;;;6.18;4.50;;;20.20;84.10;;;;;;5066201;28;20271;-73
2021/07/06 04:39:41;;;;;;;4.47;4.25;;;20.20;84.40;;;;;;5064254;28;20651;-74
2021/07/06 04:42:08;;;;;;;4.03;3.83;;;20.20;84.30;;;;;;5070411;28;20193;-74
2021/07/06 04:44:34;;;;;;;6.03;4.57;;;20.30;84.20;;;;;;5064352;28;20274;-74
2021/07/06 04:47:00;;;;;;;7.95;4.15;;;20.30;84.10;;;;;;5063459;28;20186;-74
2021/07/06 04:49:28;;;;;;;4.80;4.50;;;20.30;84.90;;;;;;5061445;28;20183;-73
2021/07/06 04:51:54;;;;;;;4.95;4.65;;;20.30;84.20;;;;;;5064153;28;20191;-74
2021/07/06 04:54:23;;;;;;;5.18;4.88;;;20.40;84.70;;;;;;5063424;28;20223;-74
2021/07/06 04:56:50;;;;;;;4.90;4.68;;;20.40;84.30;;;;;;5063065;28;20197;-74
2021/07/06 04:59:16;;;;;;;4.85;4.32;;;20.40;84.40;;;;;;5066555;28;20797;-74
2021/07/06 05:01:42;;;;;;;5.10;4.80;;;20.50;84.60;;;;;;5063176;28;20183;-74
2021/07/06 05:04:07;;;;;;;4.90;4.60;;;20.50;84.80;;;;;;5065754;28;20205;-74
2021/07/06 05:06:33;;;;;;;5.70;4.68;;;20.50;84.20;;;;;;5064627;28;20809;-73
2021/07/06 05:09:00;;;;;;;5.00;4.75;;;20.50;85.00;;;;;;5065170;28;20259;-74
2021/07/06 05:11:25;;;;;;;8.27;5.90;;;20.60;84.10;;;;;;5061800;28;20607;-74
2021/07/06 05:13:51;;;;;;;5.30;4.90;;;20.60;84.40;;;;;;5067129;28;20226;-74
2021/07/06 05:16:17;;;;;;;4.85;4.57;;;20.60;84.50;;;;;;5063801;28;20190;-74
2021/07/06 05:18:42;;;;;;;5.45;5.00;;;20.70;84.60;;;;;;5065166;28;20273;-74
2021/07/06 05:21:08;;;;;;;5.82;5.32;;;20.70;84.60;;;;;;5064495;28;20279;-74
2021/07/06 05:23:33;;;;;;;6.15;5.53;;;20.70;85.10;;;;;;5066995;28;20190;-74
2021/07/06 05:26:00;;;;;;;5.28;4.97;;;20.70;84.90;;;;;;5067573;28;20623;-74
2021/07/06 05:28:25;;;;;;;5.05;4.75;;;20.70;84.90;;;;;;5064227;28;20183;-75
2021/07/06 05:30:51;;;;;;;5.35;5.13;;;20.80;84.90;;;;;;5065351;28;20191;-74
2021/07/06 05:33:17;;;;;;;5.80;5.40;;;20.80;85.10;;;;;;5066097;28;20214;-74
2021/07/06 05:35:42;;;;;;;6.68;6.15;;;20.80;85.30;;;;;;5064698;28;20652;-75
2021/07/06 05:38:08;;;;;;;5.88;5.45;;;20.80;85.20;;;;;;5064175;28;20175;-74
2021/07/06 05:40:38;;;;;;;5.85;5.50;;;20.90;85.20;;;;;;5064113;28;20648;-74
2021/07/06 05:43:09;;;;;;;6.20;5.78;;;20.90;85.50;;;;;;5063467;28;20186;-74
2021/07/06 05:45:36;;;;;;;6.05;5.60;;;21.00;85.40;;;;;;5065482;28;20179;-73
2021/07/06 05:48:03;;;;;;;6.20;5.88;;;21.00;84.80;;;;;;5063283;28;20187;-73
2021/07/06 05:50:30;;;;;;;6.93;6.40;;;21.10;85.20;;;;;;5065777;28;21925;-73
2021/07/06 05:52:56;;;;;;;6.40;5.75;;;21.20;84.70;;;;;;5063384;28;20610;-73
2021/07/06 05:55:22;;;;;;;6.15;5.63;;;21.20;84.60;;;;;;5065851;28;20179;-72
2021/07/06 05:57:48;;;;;;;5.90;5.47;;;21.30;84.60;;;;;;5065376;28;20976;-72
2021/07/06 06:00:15;;;;;;;6.15;5.75;;;21.40;84.80;;;;;;5072853;28;20213;-72
2021/07/06 06:02:41;;;;;;;6.18;5.75;;;21.40;85.00;;;;;;5085632;28;20548;-73
2021/07/06 06:05:07;;;;;;;5.50;5.20;;;21.40;84.50;;;;;;5070976;28;20191;-72
2021/07/06 06:07:38;;;;;;;5.65;5.35;;;21.50;84.40;;;;;;5068896;28;20262;-73
2021/07/06 06:10:05;;;;;;;6.40;5.32;;;21.60;84.00;;;;;;5070401;28;20549;-72
2021/07/06 06:12:31;;;;;;;5.68;5.35;;;21.70;84.20;;;;;;5065762;28;20217;-72
2021/07/06 06:14:57;;;;;;;6.03;5.47;;;21.70;84.10;;;;;;5070239;28;20202;-72
2021/07/06 06:17:22;;;;;;;6.00;5.60;;;21.70;84.70;;;;;;5070454;28;20740;-71
2021/07/06 06:19:48;;;;;;;6.30;5.65;;;21.80;84.30;;;;;;5070576;28;20179;-72
2021/07/06 06:22:13;;;;;;;5.97;5.55;;;21.80;83.80;;;;;;5069872;28;20934;-70
2021/07/06 06:24:39;;;;;;;5.93;5.43;;;21.90;83.60;;;;;;5070406;28;20187;-71
2021/07/06 06:27:05;;;;;;;5.78;5.43;;;21.90;83.20;;;;;;5069736;28;20216;-72
2021/07/06 06:29:31;;;;;;;5.43;5.03;;;22.00;82.60;;;;;;5069807;28;20178;-72
2021/07/06 06:31:56;;;;;;;6.00;5.63;;;22.00;82.90;;;;;;5068389;28;20179;-72
2021/07/06 06:34:22;;;;;;;5.53;5.13;;;22.00;82.70;;;;;;5070035;28;20692;-72
2021/07/06 06:36:47;;;;;;;5.63;5.13;;;22.20;82.60;;;;;;5068306;28;20722;-72
2021/07/06 06:39:13;;;;;;;5.68;5.38;;;22.20;82.70;;;;;;5069296;28;20186;-74
2021/07/06 06:41:39;;;;;;;5.50;5.18;;;22.20;82.20;;;;;;5068246;28;20667;-73
2021/07/06 06:44:05;;;;;;;5.28;5.03;;;22.20;81.80;;;;;;5065889;28;20179;-71
2021/07/06 06:46:30;;;;;;;5.50;5.20;;;22.20;81.70;;;;;;5062924;28;20641;-72
2021/07/06 06:49:00;;;;;;;7.35;6.03;;;22.30;81.50;;;;;;5070106;28;20194;-73
2021/07/06 06:51:26;;;;;;;5.75;5.30;;;22.30;81.50;;;;;;5068249;28;20644;-72
2021/07/06 06:53:52;;;;;;;5.63;5.22;;;22.40;81.60;;;;;;5069982;28;20306;-72
2021/07/06 06:56:17;;;;;;;7.03;5.32;;;22.50;80.80;;;;;;5085243;28;20262;-72
2021/07/06 06:58:44;;;;;;;5.53;5.20;;;22.60;80.40;;;;;;5069885;28;20171;-73
2021/07/06 07:01:10;;;;;;;4.97;4.57;;;22.60;80.50;;;;;;5068308;28;20652;-73
2021/07/06 07:03:36;;;;;;;5.80;5.43;;;22.70;80.30;;;;;;5069806;28;20185;-73
2021/07/06 07:06:01;;;;;;;4.90;4.70;;;22.80;79.80;;;;;;5069255;28;20175;-73
2021/07/06 07:08:27;;;;;;;4.78;4.50;;;22.80;79.40;;;;;;5068813;28;20653;-73
2021/07/06 07:10:53;;;;;;;6.28;4.93;;;22.90;79.40;;;;;;5067750;28;20182;-72
2021/07/06 07:13:18;;;;;;;5.03;4.72;;;22.90;79.30;;;;;;5068391;28;20209;-73
2021/07/06 07:15:44;;;;;;;5.35;4.57;;;23.00;79.10;;;;;;5068646;28;20199;-72
2021/07/06 07:18:10;;;;;;;7.20;4.80;;;23.10;79.20;;;;;;5068903;28;20653;-75
2021/07/06 07:20:36;;;;;;;5.05;4.75;;;23.10;77.90;;;;;;5067029;28;20183;-72
2021/07/06 07:23:02;;;;;;;5.28;4.97;;;23.20;78.40;;;;;;5067710;28;20228;-72
2021/07/06 07:25:29;;;;;;;4.82;4.63;;;23.20;78.70;;;;;;5069143;28;20179;-71
2021/07/06 07:27:55;;;;;;;4.90;4.50;;;23.30;78.90;;;;;;5068888;28;20167;-72
2021/07/06 07:30:22;;;;;;;4.65;4.45;;;23.40;77.20;;;;;;5068558;28;20175;-72
2021/07/06 07:32:48;;;;;;;4.65;4.35;;;23.50;77.10;;;;;;5068158;28;20282;-71
2021/07/06 07:35:15;;;;;;;4.28;4.07;;;23.60;76.50;;;;;;5068227;28;20671;-71
2021/07/06 07:37:42;;;;;;;5.53;4.45;;;23.60;76.60;;;;;;5066999;28;20182;-71
2021/07/06 07:40:09;;;;;;;4.45;4.25;;;23.70;76.20;;;;;;5068378;28;20167;-74
2021/07/06 07:42:35;;;;;;;4.75;4.38;;;23.80;76.60;;;;;;5083691;28;20182;-74
2021/07/06 07:45:00;;;;;;;4.20;4.03;;;23.90;75.70;;;;;;5067351;28;20187;-71
2021/07/06 07:47:26;;;;;;;4.88;4.68;;;24.00;75.50;;;;;;5065491;28;20189;-71
2021/07/06 07:49:52;;;;;;;4.40;4.20;;;24.00;75.20;;;;;;5067615;28;20958;-72
2021/07/06 07:52:18;;;;;;;4.55;4.18;;;24.10;75.20;;;;;;5083090;28;20191;-72
2021/07/06 07:54:43;;;;;;;5.22;4.63;;;24.20;75.00;;;;;;5065063;28;20182;-72
2021/07/06 07:57:10;;;;;;;4.70;4.40;;;24.20;74.70;;;;;;5067240;28;20187;-72
2021/07/06 07:59:39;;;;;;;4.60;4.13;;;24.20;74.00;;;;;;5081237;28;20265;-71
2021/07/06 08:02:05;;;;;;;4.95;4.75;;;24.20;73.40;;;;;;5068308;28;20250;-72
2021/07/06 08:04:31;;;;;;;6.15;4.65;;;24.20;73.50;;;;;;5064360;28;20244;-72
2021/07/06 08:06:57;;;;;;;4.68;4.35;;;24.20;73.40;;;;;;5066956;28;20189;-71
2021/07/06 08:09:22;;;;;;;4.32;4.13;;;24.30;73.80;;;;;;5066341;28;20191;-72
2021/07/06 08:11:48;;;;;;;4.03;3.83;;;24.20;73.50;;;;;;5069630;28;20276;-71
2021/07/06 08:14:14;;;;;;;3.83;3.63;;;24.30;73.60;;;;;;5069639;28;20978;-71
2021/07/06 08:16:40;;;;;;;4.85;3.78;;;24.30;72.40;;;;;;5083543;28;20193;-71
2021/07/06 08:19:06;;;;;;;3.63;3.53;;;24.40;72.50;;;;;;5080714;28;20167;-72
2021/07/06 08:21:31;;;;;;;3.90;3.72;;;24.60;73.10;;;;;;5067283;28;21017;-73
2021/07/06 08:24:00;;;;;;;4.00;3.85;;;24.70;73.40;;;;;;5066877;28;20233;-72
2021/07/06 08:26:26;;;;;;;3.78;3.35;;;24.70;72.50;;;;;;5077807;28;20203;-72
2021/07/06 08:28:53;;;;;;;3.92;3.83;;;24.80;72.30;;;;;;5071010;28;20174;-73
2021/07/06 08:31:19;;;;;;;4.07;3.95;;;24.80;72.30;;;;;;5066269;28;20229;-72
2021/07/06 08:33:44;;;;;;;4.68;4.38;;;24.90;73.00;;;;;;5068885;28;20214;-72
2021/07/06 08:36:10;;;;;;;3.72;3.63;;;25.00;72.50;;;;;;5075324;28;20179;-72
2021/07/06 08:38:40;;;;;;;4.07;3.85;;;25.10;72.80;;;;;;5072257;28;20274;-72
2021/07/06 08:41:08;;;;;;;4.25;3.83;;;25.10;72.20;;;;;;5064888;28;20187;-72
2021/07/06 08:43:34;;;;;;;4.22;3.92;;;25.20;72.60;;;;;;5066340;28;20187;-72
2021/07/06 08:46:02;;;;;;;3.90;3.80;;;25.30;72.90;;;;;;5063838;28;20734;-72
2021/07/06 08:48:31;;;;;;;4.38;4.20;;;25.40;72.40;;;;;;5065456;28;20187;-72
2021/07/06 08:50:59;;;;;;;4.05;3.95;;;25.50;72.20;;;;;;5068264;28;20723;-72
2021/07/06 08:53:24;;;;;;;4.53;4.32;;;25.50;72.30;;;;;;5064928;28;20218;-72
2021/07/06 08:55:50;;;;;;;4.53;4.20;;;25.70;72.10;;;;;;5067273;28;20187;-72
2021/07/06 08:58:19;;;;;;;4.32;4.13;;;25.80;71.40;;;;;;5064458;28;20262;-73
2021/07/06 09:00:45;;;;;;;4.30;4.10;;;25.90;71.50;;;;;;5065856;28;20685;-72
2021/07/06 09:03:11;;;;;;;4.55;4.10;;;25.90;70.30;;;;;;5069101;28;20179;-72
2021/07/06 09:05:37;;;;;;;4.15;3.95;;;26.00;71.30;;;;;;5064785;28;20270;-72
2021/07/06 09:08:05;;;;;;;4.00;3.80;;;26.10;71.00;;;;;;5067425;28;20175;-72
2021/07/06 09:10:39;;;;;;;3.90;3.80;;;26.30;71.00;;;;;;5065379;28;20209;-74
2021/07/06 09:13:24;;;;;;;3.92;3.65;;;26.40;69.90;;;;;;5063947;28;20218;-72
2021/07/06 09:15:52;;;;;;;3.58;3.47;;;26.50;69.20;;;;;;5067032;28;20201;-71
2021/07/06 09:18:20;;;;;;;3.58;3.47;;;26.70;69.80;;;;;;5081484;28;20185;-71
2021/07/06 09:21:04;;;;;;;3.35;3.15;;;26.70;68.60;;;;;;5068403;28;20187;-72
2021/07/06 09:23:34;;;;;;;3.63;3.42;;;26.80;67.10;;;;;;5064868;28;20179;-72
2021/07/06 09:26:25;;;;;;;4.35;4.15;;;26.70;67.70;;;;;;5061796;28;20190;-72
2021/07/06 09:28:54;;;;;;;3.58;3.38;;;26.80;68.30;;;;;;5077034;28;20264;-72
2021/07/06 09:31:26;;;;;;;5.72;3.83;;;27.00;69.10;;;;;;5066723;28;20270;-72
2021/07/06 09:33:56;;;;;;;4.20;4.00;;;27.20;68.50;;;;;;5066387;28;20221;-71
2021/07/06 09:36:26;;;;;;;4.18;3.85;;;27.40;68.40;;;;;;5065661;28;20197;-72
2021/07/06 09:39:05;;;;;;;4.13;3.83;;;27.50;67.80;;;;;;5080352;28;20569;-71
2021/07/06 09:41:31;;;;;;;3.70;3.50;;;27.60;67.00;;;;;;5064264;28;20186;-71
2021/07/06 09:44:20;;;;;;;3.45;3.35;;;27.70;67.30;;;;;;5082936;28;20690;-70
2021/07/06 09:47:14;;;;;;;3.90;3.80;;;27.80;66.80;;;;;;5078822;28;20654;-71
2021/07/06 09:49:43;;;;;;;4.07;3.72;;;28.00;66.80;;;;;;5063970;28;20198;-72
2021/07/06 09:52:18;;;;;;;4.22;3.92;;;28.20;66.60;;;;;;5062165;28;20910;-73
2021/07/06 09:54:46;;;;;;;3.85;3.70;;;28.40;66.70;;;;;;5071364;28;20185;-72
2021/07/06 09:57:27;;;;;;;3.50;3.40;;;28.50;65.90;;;;;;5061162;28;20276;-72
2021/07/06 10:00:07;;;;;;;3.63;3.42;;;28.60;66.10;;;;;;5061751;28;20179;-72
2021/07/06 10:02:33;;;;;;;3.75;3.65;;;28.80;65.60;;;;;;5063536;28;20187;-71
2021/07/06 10:05:04;;;;;;;3.10;3.00;;;29.00;65.80;;;;;;5069293;28;20202;-71
2021/07/06 10:07:30;;;;;;;3.72;3.58;;;29.20;64.20;;;;;;5066876;28;20244;-71
2021/07/06 10:09:57;;;;;;;4.18;3.75;;;29.30;63.80;;;;;;5065458;28;20715;-71
2021/07/06 10:12:24;;;;;;;3.78;3.53;;;29.40;63.50;;;;;;5066150;28;20186;-71
2021/07/06 10:14:51;;;;;;;4.15;3.75;;;29.40;63.90;;;;;;5065585;28;20286;-71
2021/07/06 10:17:17;;;;;;;3.80;3.60;;;29.40;63.70;;;;;;5075093;28;20190;-71
2021/07/06 10:19:45;;;;;;;3.85;3.53;;;29.50;63.10;;;;;;5070379;28;20210;-71
2021/07/06 10:22:12;;;;;;;3.65;3.53;;;29.70;63.70;;;;;;5069471;28;20172;-71
2021/07/06 10:24:39;;;;;;;3.55;3.45;;;29.90;60.40;;;;;;5065790;28;20281;-71
2021/07/06 10:27:07;;;;;;;3.30;3.10;;;30.00;60.50;;;;;;5066350;28;20175;-70
2021/07/06 10:29:36;;;;;;;3.60;3.45;;;30.20;60.70;;;;;;5065175;28;20255;-72
2021/07/06 10:32:03;;;;;;;3.10;3.00;;;30.40;60.10;;;;;;5066913;28;20178;-71
2021/07/06 10:34:40;;;;;;;3.85;3.75;;;30.50;60.60;;;;;;5067286;28;20240;-71
2021/07/06 10:37:28;;;;;;;3.17;3.03;;;30.60;60.00;;;;;;5066753;28;20190;-71
2021/07/06 10:39:54;;;;;;;3.08;2.97;;;30.60;59.50;;;;;;5067556;28;20262;-72
2021/07/06 10:42:19;;;;;;;3.53;3.47;;;30.90;58.70;;;;;;5067528;28;20270;-71
2021/07/06 10:44:45;;;;;;;2.83;2.72;;;31.20;58.60;;;;;;5071101;28;20170;-72
2021/07/06 10:47:48;;;;;;;3.40;3.30;;;31.30;59.60;;;;;;5078923;28;20179;-72
2021/07/06 10:50:44;;;;;;;3.17;3.17;;;31.20;57.80;;;;;;5029464;28;20200;-72
2021/07/06 10:53:22;;;;;;;3.40;3.30;;;31.30;59.80;;;;;;5030023;28;20227;-71
2021/07/06 10:56:12;;;;;;;3.15;3.05;;;31.60;59.70;;;;;;5030142;28;20189;-71
2021/07/06 10:58:57;;;;;;;3.08;2.92;;;32.50;56.80;;;;;;5032183;28;20207;-71
2021/07/06 11:01:57;;;;;;;3.10;3.08;;;33.40;55.40;;;;;;5004384;28;20644;-71
2021/07/06 11:04:49;;;;;;;3.17;3.08;;;33.70;54.50;;;;;;5032192;28;21078;-71
2021/07/06 11:07:30;;;;;;;3.85;3.22;;;33.50;54.80;;;;;;5022614;28;20296;-71
2021/07/06 11:09:55;;;;;;;2.90;2.90;;;33.60;54.80;;;;;;5024845;28;20562;-72
2021/07/06 11:12:21;;;;;;;3.33;3.13;;;34.00;54.60;;;;;;5033002;28;20191;-71
2021/07/06 11:14:52;;;;;;;3.28;3.08;;;34.60;54.30;;;;;;5012542;28;20206;-70
2021/07/06 11:17:45;;;;;;;3.50;3.40;;;34.80;53.20;;;;;;5026373;28;20249;-71
2021/07/06 11:20:14;;;;;;;2.70;2.70;;;34.80;53.40;;;;;;5007821;28;20212;-71
2021/07/06 11:22:50;;;;;;;3.05;2.95;;;35.10;54.70;;;;;;5026527;28;20202;-72
2021/07/06 11:25:37;;;;;;;4.53;3.03;;;35.60;52.90;;;;;;5037502;28;20271;-71
2021/07/06 11:28:14;;;;;;;3.05;2.83;;;36.30;50.70;;;;;;5069012;28;20178;-71
2021/07/06 11:30:48;;;;;;;3.63;2.92;;;36.80;51.70;;;;;;5063880;28;20186;-72
2021/07/06 11:33:24;;;;;;;2.88;2.88;;;36.80;50.90;;;;;;5071381;28;20219;-71
2021/07/06 11:35:51;;;;;;;3.03;2.92;;;36.70;51.00;;;;;;5086846;28;20207;-72
2021/07/06 11:38:23;;;;;;;2.90;2.85;;;36.80;51.70;;;;;;5071414;28;20175;-71
2021/07/06 11:40:52;;;;;;;2.88;2.67;;;37.20;50.70;;;;;;5069644;28;20677;-70
2021/07/06 11:43:20;;;;;;;2.90;2.78;;;37.90;51.30;;;;;;5070902;28;20175;-71
2021/07/06 11:45:52;;;;;;;3.25;2.97;;;38.20;51.40;;;;;;5069495;28;20186;-71
2021/07/06 11:48:20;;;;;;;2.78;2.58;;;38.00;50.40;;;;;;5069916;28;20204;-71
2021/07/06 11:50:47;;;;;;;2.80;2.70;;;37.40;51.60;;;;;;5069761;28;20266;-71
2021/07/06 11:53:14;;;;;;;2.95;2.85;;;36.80;53.10;;;;;;5067797;28;20211;-71
2021/07/06 11:55:43;;;;;;;2.80;2.70;;;36.50;52.90;;;;;;5067554;28;20183;-71
2021/07/06 11:58:10;;;;;;;2.45;2.35;;;36.60;50.70;;;;;;5064141;28;20179;-71
2021/07/06 12:00:39;;;;;;;2.60;2.60;;;37.30;50.50;;;;;;5070314;28;20273;-71
2021/07/06 12:03:26;;;;;;;2.58;2.53;;;37.50;50.00;;;;;;5072528;28;20854;-71
2021/07/06 12:05:59;;;;;;;3.20;3.00;;;37.30;50.60;;;;;;5072431;28;20178;-71
2021/07/06 12:08:27;;;;;;;2.83;2.63;;;36.90;51.20;;;;;;5061287;28;20179;-71
2021/07/06 12:11:02;;;;;;;2.80;2.70;;;36.60;51.40;;;;;;5063141;28;20178;-72
2021/07/06 12:13:34;;;;;;;2.75;2.75;;;36.60;50.20;;;;;;5068164;28;20537;-71
2021/07/06 12:16:03;;;;;;;2.55;2.45;;;37.10;50.60;;;;;;5066072;28;20187;-72
2021/07/06 12:18:31;;;;;;;2.47;2.45;;;37.70;50.10;;;;;;5067561;28;20223;-72
2021/07/06 12:21:08;;;;;;;2.83;2.63;;;38.20;51.00;;;;;;5073416;28;20178;-72
2021/07/06 12:23:37;;;;;;;2.60;2.50;;;39.00;48.00;;;;;;5067974;28;20186;-70
2021/07/06 12:26:04;;;;;;;3.00;2.75;;;39.60;47.50;;;;;;5065866;28;20189;-71
2021/07/06 12:28:31;;;;;;;3.45;2.55;;;40.30;47.00;;;;;;5071444;28;20166;-72
2021/07/06 12:31:29;;;;;;;3.13;3.10;;;40.90;47.30;;;;;;5074761;28;20182;-72
2021/07/06 12:34:13;;;;;;;3.40;3.30;;;41.00;45.90;;;;;;5061011;28;20206;-71
2021/07/06 12:36:41;;;;;;;3.20;3.10;;;40.50;47.70;;;;;;5065553;28;20189;-71
2021/07/06 12:39:09;;;;;;;5.18;3.05;;;39.60;49.20;;;;;;5065799;28;20306;-73
2021/07/06 12:41:55;;;;;;;2.80;2.78;;;38.80;50.50;;;;;;5063770;28;20179;-73
2021/07/06 12:44:46;;;;;;;3.03;2.92;;;38.70;49.30;;;;;;5065448;28;20182;-74
2021/07/06 12:47:16;;;;;;;9.40;2.78;;;39.00;48.50;;;;;;5058304;28;20189;-72
2021/07/06 12:49:53;;;;;;;2.40;2.40;;;39.70;49.20;;;;;;5064453;28;20909;-71
2021/07/06 12:52:24;;;;;;;1.95;1.95;;;40.40;46.60;;;;;;5065291;28;20631;-72
2021/07/06 12:54:50;;;;;;;2.42;2.33;;;41.20;46.20;;;;;;5066015;28;20185;-73